Time;durP1;ratioP1;P1;durP2;ratioP2;P2;SDS_P1;SDS_P2;PMS_P1;PMS_P2;Temp;Humidity;BMP_temperature;BMP_pressure;BME280_temperature;BME280_humidity;BME280_pressure;Samples;Min_cycle;Max_cycle;Signal;HPM_P1;HPM_P2
2023/05/02 00:01:50;;;;;;;87.00;50.75;;;14.50;99.90;;;;;;5131509;27;20024;-69
2023/05/02 00:04:17;;;;;;;85.32;51.05;;;14.50;99.90;;;;;;5133001;27;20038;-72
2023/05/02 00:06:45;;;;;;;88.28;49.95;;;14.60;99.90;;;;;;5132432;27;20491;-70
2023/05/02 00:09:11;;;;;;;77.15;47.72;;;14.60;99.90;;;;;;5133481;27;20110;-69
2023/05/02 00:11:37;;;;;;;82.20;47.05;;;14.60;99.90;;;;;;5132814;27;20481;-69
2023/05/02 00:14:03;;;;;;;82.97;45.95;;;14.60;99.90;;;;;;5129972;28;20041;-69
2023/05/02 00:16:28;;;;;;;78.22;45.83;;;14.60;99.90;;;;;;5131398;27;20019;-69
2023/05/02 00:18:54;;;;;;;79.47;46.50;;;14.60;99.90;;;;;;5132797;28;20031;-70
2023/05/02 00:21:20;;;;;;;81.55;44.75;;;14.60;99.90;;;;;;5133118;27;20030;-68
2023/05/02 00:23:45;;;;;;;82.97;44.95;;;14.60;99.90;;;;;;5132287;27;20435;-68
2023/05/02 00:26:11;;;;;;;87.32;48.15;;;14.60;99.90;;;;;;5133013;28;20031;-69
2023/05/02 00:28:37;;;;;;;76.85;44.00;;;14.60;99.90;;;;;;5133302;28;20029;-69
2023/05/02 00:31:04;;;;;;;77.88;43.70;;;14.60;99.90;;;;;;5131063;28;20379;-69
2023/05/02 00:33:29;;;;;;;74.93;43.45;;;14.70;99.90;;;;;;5132094;27;20456;-69
2023/05/02 00:35:55;;;;;;;75.88;42.05;;;14.60;99.90;;;;;;5131113;28;20054;-69
2023/05/02 00:38:21;;;;;;;75.65;43.95;;;14.60;99.90;;;;;;5132327;28;20487;-69
2023/05/02 00:40:50;;;;;;;76.60;42.00;;;14.70;99.90;;;;;;5128723;28;20023;-69
2023/05/02 00:43:16;;;;;;;75.78;42.00;;;14.70;99.90;;;;;;5130770;27;20027;-68
2023/05/02 00:45:43;;;;;;;74.15;41.53;;;14.70;99.90;;;;;;5132821;27;20375;-68
2023/05/02 00:48:09;;;;;;;71.65;41.40;;;14.70;99.90;;;;;;5132537;27;20564;-68
2023/05/02 00:50:42;;;;;;;75.88;41.67;;;14.60;99.90;;;;;;5133054;27;20046;-69
2023/05/02 00:53:09;;;;;;;65.20;37.42;;;14.60;99.90;;;;;;5132894;27;20019;-71
2023/05/02 00:55:35;;;;;;;68.07;37.90;;;14.70;99.90;;;;;;5132376;27;20110;-68
2023/05/02 00:58:05;;;;;;;63.60;36.75;;;14.60;99.90;;;;;;5133015;27;20432;-69
2023/05/02 01:01:06;;;;;;;58.28;33.47;;;14.60;99.90;;;;;;5133100;27;20532;-69
2023/05/02 01:04:07;;;;;;;58.22;34.53;;;14.50;99.90;;;;;;5132121;27;20058;-69
2023/05/02 01:06:42;;;;;;;57.83;33.38;;;14.60;99.90;;;;;;5099575;27;20421;-69
2023/05/02 01:09:26;;;;;;;54.40;31.40;;;14.60;99.90;;;;;;5132154;27;20418;-69
2023/05/02 01:12:09;;;;;;;52.75;31.42;;;14.60;99.90;;;;;;5130690;28;20039;-69
2023/05/02 01:14:39;;;;;;;;;;;14.60;99.90;;;;;;5132799;27;20039;-69
2023/05/02 01:17:08;;;;;;;52.85;30.20;;;14.50;99.90;;;;;;5134677;27;19904;-68
2023/05/02 01:19:48;;;;;;;48.88;29.27;;;14.60;99.90;;;;;;5136580;27;20019;-69
2023/05/02 01:22:15;;;;;;;52.33;30.27;;;14.50;99.90;;;;;;5135297;27;20053;-69
2023/05/02 01:25:13;;;;;;;53.67;30.48;;;14.50;99.90;;;;;;5135621;27;20382;-69
2023/05/02 01:27:54;;;;;;;52.05;30.77;;;14.50;99.90;;;;;;5135973;27;20043;-68
2023/05/02 01:30:21;;;;;;;49.10;30.65;;;14.50;99.90;;;;;;5136585;27;20341;-69
2023/05/02 01:32:48;;;;;;;52.13;30.08;;;14.60;99.90;;;;;;5135874;27;20079;-69
2023/05/02 01:35:15;;;;;;;48.75;29.88;;;14.50;99.90;;;;;;5135997;27;20075;-69
2023/05/02 01:37:46;;;;;;;47.15;28.23;;;14.60;99.90;;;;;;5134548;27;20031;-69
2023/05/02 01:40:16;;;;;;;48.63;27.90;;;14.60;99.90;;;;;;5135202;27;20029;-69
2023/05/02 01:42:44;;;;;;;48.10;28.88;;;14.50;99.90;;;;;;5135417;27;20487;-69
2023/05/02 01:45:12;;;;;;;49.25;28.13;;;14.60;99.90;;;;;;5135398;27;20030;-70
2023/05/02 01:47:42;;;;;;;45.78;26.70;;;14.50;99.90;;;;;;5135063;27;20475;-70
2023/05/02 01:50:10;;;;;;;48.40;26.70;;;14.50;99.90;;;;;;5133627;27;20051;-69
2023/05/02 01:52:37;;;;;;;49.22;26.45;;;14.40;99.90;;;;;;5133795;27;20465;-69
2023/05/02 01:55:06;;;;;;;50.85;27.60;;;14.30;99.90;;;;;;5135566;27;20023;-69
2023/05/02 01:57:33;;;;;;;36.70;21.70;;;14.40;99.90;;;;;;5135250;27;20015;-69
2023/05/02 02:00:00;;;;;;;37.25;20.90;;;14.40;99.90;;;;;;5135604;27;20020;-69
2023/05/02 02:02:27;;;;;;;36.80;20.95;;;14.40;99.90;;;;;;5134182;27;20042;-69
2023/05/02 02:04:55;;;;;;;33.05;19.50;;;14.30;99.90;;;;;;5135449;27;20483;-69
2023/05/02 02:07:21;;;;;;;30.80;18.33;;;14.30;99.90;;;;;;5135717;27;20019;-69
2023/05/02 02:09:46;;;;;;;38.13;19.42;;;14.30;99.90;;;;;;5135473;27;20484;-69
2023/05/02 02:12:23;;;;;;;31.05;18.60;;;14.30;99.90;;;;;;5135470;27;20015;-68
2023/05/02 02:15:13;;;;;;;31.15;17.33;;;14.30;99.90;;;;;;5134880;27;20027;-69
2023/05/02 02:17:44;;;;;;;33.30;17.65;;;14.20;99.90;;;;;;5135090;27;20023;-69
2023/05/02 02:20:12;;;;;;;25.73;16.02;;;14.20;99.90;;;;;;5134051;27;20076;-69
2023/05/02 02:22:39;;;;;;;28.08;17.20;;;14.20;99.90;;;;;;5135433;27;20076;-69
2023/05/02 02:25:09;;;;;;;27.35;16.42;;;14.20;99.90;;;;;;5134425;27;20340;-69
2023/05/02 02:27:36;;;;;;;28.45;16.08;;;14.10;99.90;;;;;;5135140;27;20019;-69
2023/05/02 02:30:02;;;;;;;23.90;14.82;;;14.10;99.90;;;;;;5134999;27;20371;-69
2023/05/02 02:32:28;;;;;;;26.70;15.82;;;14.10;99.90;;;;;;5133534;27;20035;-69
2023/05/02 02:34:54;;;;;;;26.23;15.68;;;14.10;99.90;;;;;;5133660;27;20029;-69
2023/05/02 02:37:29;;;;;;;25.50;14.82;;;14.00;99.90;;;;;;5133980;27;20023;-69
2023/05/02 02:40:11;;;;;;;23.48;14.48;;;14.00;99.90;;;;;;5133796;27;20135;-69
2023/05/02 02:43:10;;;;;;;24.00;15.73;;;13.90;99.90;;;;;;5134526;27;20031;-68
2023/05/02 02:45:55;;;;;;;21.98;13.10;;;13.90;99.90;;;;;;5134475;27;20034;-69
2023/05/02 02:48:39;;;;;;;26.25;14.15;;;13.90;99.90;;;;;;5133605;27;20057;-69
2023/05/02 02:51:27;;;;;;;23.02;14.18;;;13.80;99.90;;;;;;5134755;27;20510;-68
2023/05/02 02:54:20;;;;;;;18.83;13.00;;;13.80;99.90;;;;;;5134559;27;20026;-69
2023/05/02 02:56:49;;;;;;;25.45;14.55;;;13.80;99.90;;;;;;5134953;27;20055;-69
2023/05/02 02:59:25;;;;;;;22.58;13.15;;;13.80;99.90;;;;;;5133888;27;20035;-70
2023/05/02 03:02:13;;;;;;;21.00;13.52;;;13.80;99.90;;;;;;5134355;27;20023;-69
2023/05/02 03:04:45;;;;;;;23.38;13.40;;;13.80;99.90;;;;;;5133436;27;20023;-70
2023/05/02 03:07:11;;;;;;;27.23;14.25;;;13.80;99.90;;;;;;5134723;27;20156;-69
2023/05/02 03:09:44;;;;;;;20.75;13.73;;;13.80;99.90;;;;;;5134240;27;20559;-70
2023/05/02 03:12:10;;;;;;;21.20;13.20;;;13.80;99.90;;;;;;5132441;27;20023;-70
2023/05/02 03:14:37;;;;;;;21.63;13.75;;;13.80;99.90;;;;;;5133623;27;20070;-71
2023/05/02 03:17:03;;;;;;;23.25;13.75;;;13.80;99.90;;;;;;5134175;27;20027;-69
2023/05/02 03:19:29;;;;;;;25.42;14.77;;;13.80;99.90;;;;;;5134149;27;20161;-69
2023/05/02 03:21:55;;;;;;;24.83;14.45;;;13.80;99.90;;;;;;5132935;27;20111;-69
2023/05/02 03:24:21;;;;;;;25.63;15.15;;;13.80;99.90;;;;;;5133202;27;20019;-69
2023/05/02 03:26:47;;;;;;;25.20;14.73;;;13.70;99.90;;;;;;5134317;27;20022;-69
2023/05/02 03:29:13;;;;;;;22.52;14.70;;;13.70;99.90;;;;;;5133803;27;20379;-69
2023/05/02 03:31:39;;;;;;;27.15;15.70;;;13.70;99.90;;;;;;5133074;27;20031;-70
2023/05/02 03:34:05;;;;;;;25.30;15.75;;;13.70;99.90;;;;;;5133966;27;20034;-70
2023/05/02 03:36:30;;;;;;;26.13;15.77;;;13.70;99.90;;;;;;5134088;27;20098;-69
2023/05/02 03:38:56;;;;;;;25.58;15.60;;;13.70;99.90;;;;;;5133767;27;20471;-68
2023/05/02 03:41:23;;;;;;;25.95;15.68;;;13.70;99.90;;;;;;5133149;27;20026;-68
2023/05/02 03:43:49;;;;;;;25.75;15.93;;;13.70;99.90;;;;;;5130443;27;20023;-69
2023/05/02 03:46:15;;;;;;;25.17;15.98;;;13.60;99.90;;;;;;5133675;27;20472;-69
2023/05/02 03:48:41;;;;;;;28.00;15.95;;;13.70;99.90;;;;;;5133666;27;20071;-69
2023/05/02 03:51:08;;;;;;;30.40;17.02;;;13.70;99.90;;;;;;5133555;27;20026;-69
2023/05/02 03:53:35;;;;;;;25.98;16.08;;;13.70;99.90;;;;;;5133064;27;20104;-71
2023/05/02 03:56:01;;;;;;;27.60;16.83;;;13.80;99.90;;;;;;5133075;27;20494;-69
2023/05/02 03:58:27;;;;;;;26.98;16.33;;;13.80;99.90;;;;;;5133689;27;20023;-69
2023/05/02 04:00:53;;;;;;;27.02;16.23;;;13.80;99.90;;;;;;5133694;27;20022;-69
2023/05/02 04:03:20;;;;;;;22.45;14.88;;;13.90;99.90;;;;;;5132933;27;20101;-69
2023/05/02 04:05:46;;;;;;;25.45;15.57;;;13.90;99.90;;;;;;5132910;27;20050;-70
2023/05/02 04:08:12;;;;;;;26.50;15.05;;;13.80;99.90;;;;;;5131227;28;20062;-69
2023/05/02 04:10:38;;;;;;;29.15;15.65;;;13.90;99.90;;;;;;5131845;28;20015;-69
2023/05/02 04:13:03;;;;;;;22.20;15.15;;;13.80;99.90;;;;;;5120876;27;20119;-69
2023/05/02 04:15:30;;;;;;;25.38;15.20;;;13.80;99.90;;;;;;5112624;28;20023;-70
2023/05/02 04:17:59;;;;;;;28.00;15.48;;;13.80;99.90;;;;;;5112424;28;20019;-68
2023/05/02 04:20:25;;;;;;;24.90;14.65;;;13.80;99.90;;;;;;5112625;28;20038;-69
2023/05/02 04:22:50;;;;;;;22.27;15.05;;;13.90;99.90;;;;;;5120175;28;20020;-69
2023/05/02 04:25:16;;;;;;;28.35;15.40;;;13.90;99.90;;;;;;5132121;28;20107;-69
2023/05/02 04:27:42;;;;;;;23.98;15.95;;;13.90;99.90;;;;;;5131563;27;20138;-69
2023/05/02 04:30:12;;;;;;;24.65;14.68;;;13.90;99.90;;;;;;5131486;27;20105;-68
2023/05/02 04:32:37;;;;;;;26.60;16.35;;;13.90;99.90;;;;;;5131929;28;20026;-69
2023/05/02 04:35:04;;;;;;;27.10;16.13;;;13.90;99.90;;;;;;5133406;28;20019;-69
2023/05/02 04:37:30;;;;;;;24.52;15.02;;;13.90;99.90;;;;;;5130413;28;20011;-70
2023/05/02 04:39:56;;;;;;;22.50;14.07;;;14.00;99.90;;;;;;5132842;27;20391;-69
2023/05/02 04:42:22;;;;;;;23.50;15.13;;;13.90;99.90;;;;;;5132303;28;20034;-69
2023/05/02 04:44:49;;;;;;;22.45;14.73;;;13.90;99.90;;;;;;5133223;27;20087;-69
2023/05/02 04:47:14;;;;;;;25.13;15.18;;;13.90;99.90;;;;;;5130626;27;20022;-69
2023/05/02 04:49:41;;;;;;;20.92;13.90;;;13.90;99.90;;;;;;5119025;27;20028;-69
2023/05/02 04:52:09;;;;;;;28.25;14.93;;;13.90;99.90;;;;;;5114627;28;20476;-68
2023/05/02 04:54:35;;;;;;;21.63;12.90;;;13.90;99.90;;;;;;5115154;27;20035;-70
2023/05/02 04:57:02;;;;;;;24.17;13.77;;;13.90;99.90;;;;;;5116207;28;20093;-69
2023/05/02 04:59:29;;;;;;;22.70;14.75;;;13.90;99.90;;;;;;5116462;28;20372;-69
2023/05/02 05:01:55;;;;;;;28.60;14.98;;;13.90;99.90;;;;;;5129192;27;20019;-69
2023/05/02 05:04:21;;;;;;;30.33;13.98;;;13.80;99.90;;;;;;5136613;27;20025;-68
2023/05/02 05:06:48;;;;;;;18.25;12.02;;;13.80;99.90;;;;;;5136712;27;20023;-69
2023/05/02 05:09:14;;;;;;;19.75;11.35;;;13.80;99.90;;;;;;5136764;27;20076;-69
2023/05/02 05:11:41;;;;;;;22.05;10.80;;;13.70;99.90;;;;;;5135586;27;20082;-69
2023/05/02 05:14:08;;;;;;;18.08;9.80;;;13.70;99.90;;;;;;5136112;27;20035;-70
2023/05/02 05:16:33;;;;;;;17.73;10.50;;;13.80;99.90;;;;;;5136487;27;20030;-69
2023/05/02 05:18:59;;;;;;;14.25;10.23;;;13.70;99.90;;;;;;5125265;27;20024;-69
2023/05/02 05:21:26;;;;;;;15.75;8.73;;;13.70;99.90;;;;;;5115440;28;20020;-70
2023/05/02 05:23:51;;;;;;;17.20;8.65;;;13.60;99.90;;;;;;5114353;28;20020;-69
2023/05/02 05:26:18;;;;;;;13.27;7.63;;;13.70;99.90;;;;;;5115710;27;20388;-69
2023/05/02 05:28:44;;;;;;;13.50;8.07;;;13.60;99.90;;;;;;5126956;27;20043;-69
2023/05/02 05:31:11;;;;;;;12.73;8.25;;;13.60;99.90;;;;;;5115939;28;20030;-69
2023/05/02 05:33:38;;;;;;;14.38;7.93;;;13.50;99.90;;;;;;5114638;28;20035;-70
2023/05/02 05:36:07;;;;;;;11.60;6.07;;;13.40;99.90;;;;;;5114732;28;20421;-69
2023/05/02 05:38:34;;;;;;;10.30;5.97;;;13.40;99.90;;;;;;5114509;27;20020;-69
2023/05/02 05:41:00;;;;;;;8.90;5.80;;;13.40;99.90;;;;;;5114389;28;20357;-69
2023/05/02 05:43:26;;;;;;;13.55;6.65;;;13.30;99.90;;;;;;5115118;28;20028;-69
2023/05/02 05:45:53;;;;;;;14.85;6.07;;;13.50;99.90;;;;;;5115248;28;20031;-69
2023/05/02 05:48:19;;;;;;;9.85;4.97;;;13.30;99.90;;;;;;5115150;28;20069;-69
2023/05/02 05:50:45;;;;;;;8.73;4.63;;;13.40;99.90;;;;;;5114755;28;20047;-69
2023/05/02 05:53:11;;;;;;;8.20;3.35;;;13.50;99.90;;;;;;5120750;27;20378;-69
2023/05/02 05:55:37;;;;;;;5.72;3.33;;;13.50;99.90;;;;;;5135482;27;20535;-69
2023/05/02 05:58:04;;;;;;;9.95;2.53;;;13.50;99.90;;;;;;5134178;27;20051;-70
2023/05/02 06:00:30;;;;;;;4.63;2.40;;;13.40;99.90;;;;;;5135524;27;20015;-68
2023/05/02 06:02:55;;;;;;;7.35;2.47;;;13.50;99.90;;;;;;5135625;27;20478;-69
2023/05/02 06:05:21;;;;;;;10.23;2.05;;;13.50;99.90;;;;;;5135830;27;20019;-69
2023/05/02 06:07:47;;;;;;;5.85;2.00;;;13.60;99.90;;;;;;5135331;27;20051;-69
2023/05/02 06:10:12;;;;;;;5.35;2.15;;;13.60;99.90;;;;;;5135114;27;20375;-69
2023/05/02 06:12:38;;;;;;;7.95;2.20;;;13.50;99.90;;;;;;5135373;27;20432;-69
2023/05/02 06:15:04;;;;;;;5.50;2.25;;;13.60;99.90;;;;;;5135290;27;20033;-69
2023/05/02 06:17:30;;;;;;;5.25;1.75;;;13.50;99.90;;;;;;5133962;27;20369;-70
2023/05/02 06:19:56;;;;;;;8.48;2.58;;;13.50;99.90;;;;;;5135125;27;20023;-69
2023/05/02 06:22:22;;;;;;;7.07;2.30;;;13.50;99.90;;;;;;5134432;27;20502;-69
2023/05/02 06:24:47;;;;;;;11.48;2.67;;;13.60;99.90;;;;;;5134421;27;20034;-68
2023/05/02 06:27:13;;;;;;;3.45;1.90;;;13.50;99.90;;;;;;5135285;27;20554;-70
2023/05/02 06:29:38;;;;;;;6.75;2.40;;;13.30;99.90;;;;;;5134882;27;20429;-69
2023/05/02 06:32:05;;;;;;;7.50;2.47;;;13.40;99.90;;;;;;5135085;27;20383;-68
2023/05/02 06:34:32;;;;;;;5.55;2.20;;;13.50;99.90;;;;;;5134545;27;20096;-69
2023/05/02 06:36:58;;;;;;;9.32;2.80;;;13.60;99.90;;;;;;5134467;27;20098;-70
2023/05/02 06:39:23;;;;;;;3.92;2.30;;;13.60;99.90;;;;;;5135067;27;20106;-69
2023/05/02 06:41:49;;;;;;;6.05;2.15;;;13.70;99.90;;;;;;5134246;27;20380;-69
2023/05/02 06:44:15;;;;;;;7.90;2.45;;;13.80;99.90;;;;;;5133684;27;20053;-69
2023/05/02 06:46:41;;;;;;;8.93;2.50;;;13.80;99.90;;;;;;5134825;27;20551;-69
2023/05/02 06:49:07;;;;;;;4.07;2.30;;;13.80;99.90;;;;;;5134489;27;20098;-69
2023/05/02 06:51:32;;;;;;;8.60;2.40;;;13.90;99.90;;;;;;5133765;27;20103;-69
2023/05/02 06:53:58;;;;;;;5.80;2.47;;;13.90;99.90;;;;;;5134367;27;20467;-69
2023/05/02 06:56:24;;;;;;;5.22;1.83;;;14.00;99.90;;;;;;5134613;27;20360;-69
2023/05/02 06:58:51;;;;;;;6.28;2.08;;;14.10;99.90;;;;;;5132324;27;20035;-69
2023/05/02 07:01:16;;;;;;;5.47;2.28;;;14.20;99.90;;;;;;5123063;27;20075;-70
2023/05/02 07:03:42;;;;;;;6.93;2.08;;;14.30;99.90;;;;;;5132876;27;20026;-69
2023/05/02 07:06:08;;;;;;;4.18;1.70;;;14.40;99.90;;;;;;5133273;27;20031;-69
2023/05/02 07:08:34;;;;;;;6.15;2.25;;;14.40;99.90;;;;;;5133950;27;20027;-70
2023/05/02 07:11:01;;;;;;;5.30;2.20;;;14.40;99.90;;;;;;5134345;27;20071;-69
2023/05/02 07:13:26;;;;;;;7.70;2.00;;;14.50;99.90;;;;;;5125392;27;20142;-69
2023/05/02 07:15:52;;;;;;;5.78;2.13;;;14.50;99.90;;;;;;5130546;27;20160;-69
2023/05/02 07:18:18;;;;;;;8.07;2.42;;;14.30;99.90;;;;;;5118805;27;20561;-69
2023/05/02 07:20:44;;;;;;;5.65;2.10;;;14.30;99.90;;;;;;5113017;27;20459;-70
2023/05/02 07:23:09;;;;;;;8.27;1.95;;;14.30;99.90;;;;;;5122050;27;20023;-69
2023/05/02 07:25:36;;;;;;;7.60;2.05;;;14.20;99.90;;;;;;5133257;27;20041;-68
2023/05/02 07:28:02;;;;;;;5.10;2.42;;;14.20;99.90;;;;;;5129966;27;20027;-68
2023/05/02 07:30:27;;;;;;;7.43;2.20;;;14.10;99.90;;;;;;5132850;27;20023;-68
2023/05/02 07:32:53;;;;;;;6.57;2.35;;;14.20;99.90;;;;;;5132150;27;20544;-69
2023/05/02 07:35:19;;;;;;;5.95;2.55;;;14.30;99.90;;;;;;5131062;27;20027;-69
2023/05/02 07:37:45;;;;;;;8.38;2.25;;;14.50;99.90;;;;;;5132689;27;20379;-68
2023/05/02 07:40:10;;;;;;;8.65;2.45;;;14.60;99.90;;;;;;5131883;27;20114;-69
2023/05/02 07:42:36;;;;;;;7.75;2.55;;;14.40;99.90;;;;;;5133429;27;20022;-68
2023/05/02 07:45:02;;;;;;;5.53;2.13;;;14.40;99.90;;;;;;5133523;27;20035;-69
2023/05/02 07:47:28;;;;;;;6.10;2.05;;;14.40;99.90;;;;;;5130996;27;20047;-68
2023/05/02 07:49:54;;;;;;;6.25;2.08;;;14.40;99.90;;;;;;5133394;27;20463;-70
2023/05/02 07:52:20;;;;;;;5.72;2.15;;;14.40;99.90;;;;;;5097785;27;20072;-69
2023/05/02 07:54:50;;;;;;;6.85;2.60;;;14.30;99.90;;;;;;5119914;27;20027;-69
2023/05/02 07:57:16;;;;;;;6.93;1.88;;;14.50;99.90;;;;;;5119563;27;20018;-68
2023/05/02 07:59:42;;;;;;;8.93;2.38;;;14.50;99.90;;;;;;5120637;27;20027;-68
2023/05/02 08:02:08;;;;;;;5.68;2.05;;;14.50;99.90;;;;;;5122764;27;20025;-68
2023/05/02 08:04:33;;;;;;;14.02;2.80;;;14.50;99.90;;;;;;5121795;27;20041;-68
2023/05/02 08:06:59;;;;;;;6.93;2.15;;;14.60;99.90;;;;;;5121689;27;20016;-69
2023/05/02 08:09:25;;;;;;;10.43;2.72;;;14.60;99.90;;;;;;5120751;28;20407;-68
2023/05/02 08:11:51;;;;;;;5.45;2.72;;;14.70;99.90;;;;;;5121150;28;20107;-68
2023/05/02 08:14:17;;;;;;;8.63;2.65;;;14.80;99.90;;;;;;5119770;28;20146;-69
2023/05/02 08:16:43;;;;;;;8.35;2.90;;;14.80;99.90;;;;;;5122379;28;20463;-68
2023/05/02 08:19:09;;;;;;;8.57;2.67;;;14.80;99.90;;;;;;5121816;27;20038;-68
2023/05/02 08:21:35;;;;;;;9.55;2.95;;;14.70;99.90;;;;;;5125465;28;20019;-69
2023/05/02 08:24:01;;;;;;;14.98;2.53;;;14.70;99.90;;;;;;5128005;27;20030;-69
2023/05/02 08:26:27;;;;;;;11.13;2.70;;;14.70;99.90;;;;;;5124271;27;20048;-68
2023/05/02 08:28:53;;;;;;;9.90;2.47;;;14.70;99.90;;;;;;5127102;27;20080;-68
2023/05/02 08:31:20;;;;;;;8.93;2.97;;;14.70;99.90;;;;;;5127442;27;20028;-68
2023/05/02 08:33:46;;;;;;;11.38;3.03;;;14.70;99.90;;;;;;5125916;27;20114;-68
2023/05/02 08:36:13;;;;;;;9.75;2.78;;;14.70;99.90;;;;;;5128810;27;20031;-68
2023/05/02 08:38:40;;;;;;;10.93;3.00;;;14.70;99.90;;;;;;5123737;27;20110;-68
2023/05/02 08:41:16;;;;;;;8.98;2.70;;;14.70;99.90;;;;;;5125184;27;20027;-68
2023/05/02 08:43:43;;;;;;;9.20;2.70;;;14.70;99.90;;;;;;5125835;27;20037;-68
2023/05/02 08:46:13;;;;;;;8.48;2.80;;;14.70;99.90;;;;;;5125643;27;20039;-68
2023/05/02 08:48:41;;;;;;;8.05;2.88;;;14.80;99.90;;;;;;5125705;27;20038;-68
2023/05/02 08:51:12;;;;;;;6.32;2.47;;;14.90;99.90;;;;;;5125939;27;20031;-69
2023/05/02 08:53:39;;;;;;;7.53;2.42;;;15.10;99.90;;;;;;5124360;27;20026;-69
2023/05/02 08:56:09;;;;;;;7.68;3.00;;;15.20;99.90;;;;;;5123750;27;20023;-68
2023/05/02 08:58:39;;;;;;;13.32;3.05;;;15.10;99.90;;;;;;5123388;27;20083;-68
2023/05/02 09:01:16;;;;;;;14.48;2.92;;;15.00;99.90;;;;;;5118166;27;20467;-68
2023/05/02 09:03:46;;;;;;;10.52;2.60;;;15.00;99.90;;;;;;5123569;27;20027;-69
2023/05/02 09:06:16;;;;;;;12.25;3.22;;;15.00;99.90;;;;;;5123714;27;20037;-68
2023/05/02 09:08:44;;;;;;;15.85;2.97;;;15.10;99.90;;;;;;5125334;27;20098;-68
2023/05/02 09:11:11;;;;;;;11.32;2.95;;;15.10;99.90;;;;;;5122778;27;20075;-69
2023/05/02 09:13:41;;;;;;;15.15;3.95;;;15.20;99.90;;;;;;5123993;27;20031;-68
2023/05/02 09:16:08;;;;;;;15.07;3.20;;;15.10;99.90;;;;;;5122979;27;20031;-68
2023/05/02 09:18:40;;;;;;;18.50;3.85;;;15.10;99.90;;;;;;5124909;27;20427;-68
2023/05/02 09:21:15;;;;;;;12.43;3.72;;;15.10;99.90;;;;;;5127085;27;20047;-68
2023/05/02 09:23:48;;;;;;;8.75;3.75;;;14.80;99.90;;;;;;5120013;27;20063;-68
2023/05/02 09:26:26;;;;;;;7.32;3.10;;;14.80;99.90;;;;;;5125559;27;20438;-68
2023/05/02 09:28:56;;;;;;;12.98;3.53;;;14.70;99.90;;;;;;5125916;27;20042;-69
2023/05/02 09:31:33;;;;;;;15.57;3.60;;;14.70;99.90;;;;;;5117820;27;20077;-69
2023/05/02 09:34:12;;;;;;;10.63;3.85;;;14.70;99.90;;;;;;5119138;27;20506;-69
2023/05/02 09:36:42;;;;;;;12.45;3.75;;;14.80;99.90;;;;;;5124659;27;20471;-69
2023/05/02 09:39:11;;;;;;;9.75;3.88;;;14.70;99.90;;;;;;5126021;27;20104;-68
2023/05/02 09:41:41;;;;;;;13.27;3.60;;;14.80;99.90;;;;;;5125244;27;20146;-68
2023/05/02 09:44:15;;;;;;;9.05;3.42;;;14.80;99.90;;;;;;5126623;27;20230;-68
2023/05/02 09:46:55;;;;;;;11.77;3.20;;;14.80;99.90;;;;;;5126854;27;20031;-69
2023/05/02 09:49:40;;;;;;;9.63;3.30;;;14.80;99.90;;;;;;5098650;27;20059;-68
2023/05/02 09:52:10;;;;;;;8.55;3.15;;;15.00;99.90;;;;;;5119734;27;20536;-68
2023/05/02 09:54:36;;;;;;;9.10;3.30;;;15.20;99.90;;;;;;5122767;27;20085;-69
2023/05/02 09:57:03;;;;;;;13.48;3.80;;;15.40;99.90;;;;;;5126928;27;20023;-69
2023/05/02 09:59:29;;;;;;;9.23;3.20;;;15.40;99.90;;;;;;5119375;27;20380;-69
2023/05/02 10:02:06;;;;;;;63.47;24.10;;;15.30;99.90;;;;;;5119400;27;20031;-69
2023/05/02 10:04:33;;;;;;;20.98;6.53;;;15.20;99.90;;;;;;5125236;27;20020;-68
2023/05/02 10:07:00;;;;;;;12.60;4.75;;;15.30;99.90;;;;;;5126767;27;20068;-69
2023/05/02 10:09:28;;;;;;;12.60;3.35;;;15.40;99.90;;;;;;5121467;27;20399;-68
2023/05/02 10:11:55;;;;;;;11.32;3.10;;;15.60;99.90;;;;;;5123120;27;20023;-69
2023/05/02 10:14:23;;;;;;;7.50;2.85;;;15.70;99.90;;;;;;5123427;27;20042;-68
2023/05/02 10:17:20;;;;;;;10.00;3.17;;;15.80;99.90;;;;;;5119805;27;20024;-68
2023/05/02 10:19:55;;;;;;;7.63;2.97;;;15.60;99.90;;;;;;5125156;27;20023;-70
2023/05/02 10:22:22;;;;;;;8.52;2.95;;;15.80;99.90;;;;;;5119698;27;20023;-68
2023/05/02 10:24:52;;;;;;;9.98;3.35;;;15.90;99.90;;;;;;5115575;27;20032;-69
2023/05/02 10:27:18;;;;;;;6.28;3.47;;;16.10;99.90;;;;;;5124634;27;20050;-69
2023/05/02 10:29:45;;;;;;;11.15;3.10;;;16.10;99.90;;;;;;5120351;27;20011;-69
2023/05/02 10:32:13;;;;;;;10.25;2.70;;;16.10;99.90;;;;;;5125732;27;20031;-68
2023/05/02 10:34:41;;;;;;;4.63;2.75;;;16.10;99.90;;;;;;5123129;27;20039;-69
2023/05/02 10:37:06;;;;;;;8.25;2.65;;;16.10;99.90;;;;;;5123895;27;20024;-69
2023/05/02 10:39:32;;;;;;;12.10;2.88;;;16.10;99.90;;;;;;5123370;27;20026;-69
2023/05/02 10:42:01;;;;;;;7.53;3.08;;;16.60;99.90;;;;;;5120767;27;20027;-70
2023/05/02 10:44:38;;;;;;;7.68;2.83;;;16.60;99.90;;;;;;5120020;27;20031;-68
2023/05/02 10:47:23;;;;;;;9.55;2.90;;;16.20;99.90;;;;;;5120067;27;20099;-69
2023/05/02 10:50:09;;;;;;;9.40;2.75;;;16.20;99.90;;;;;;5122157;27;20023;-68
2023/05/02 10:52:37;;;;;;;9.00;2.70;;;16.20;99.90;;;;;;5122113;27;20027;-69
2023/05/02 10:55:20;;;;;;;15.00;2.95;;;16.10;99.90;;;;;;5119983;27;20110;-69
2023/05/02 10:58:05;;;;;;;6.95;2.67;;;16.00;99.90;;;;;;5117195;27;20051;-69
2023/05/02 11:00:32;;;;;;;6.10;2.30;;;16.10;99.90;;;;;;5120070;27;20027;-69
2023/05/02 11:03:00;;;;;;;5.80;2.63;;;16.50;99.90;;;;;;5115209;27;20023;-69
2023/05/02 11:05:27;;;;;;;9.20;3.13;;;17.00;99.90;;;;;;5122532;27;20034;-68
2023/05/02 11:08:28;;;;;;;10.15;2.92;;;17.00;99.90;;;;;;5123398;27;20031;-69
2023/05/02 11:10:54;;;;;;;8.25;3.22;;;16.70;99.90;;;;;;5056397;28;20024;-69
2023/05/02 11:13:48;;;;;;;9.77;3.20;;;16.70;99.90;;;;;;5109100;27;20568;-69
2023/05/02 11:16:14;;;;;;;9.35;2.80;;;16.70;99.90;;;;;;5115983;27;20024;-69
2023/05/02 11:18:59;;;;;;;7.32;2.75;;;16.60;99.90;;;;;;5124778;27;20425;-69
2023/05/02 11:21:30;;;;;;;11.68;3.15;;;16.60;99.90;;;;;;5117993;27;20027;-68
2023/05/02 11:24:41;;;;;;;7.60;3.15;;;16.80;99.90;;;;;;5121458;27;20019;-69
2023/05/02 11:27:29;;;;;;;6.53;2.65;;;17.20;99.90;;;;;;5105658;27;20031;-69
2023/05/02 11:30:08;;;;;;;16.50;3.30;;;17.50;99.90;;;;;;5122755;27;20019;-68
2023/05/02 11:32:47;;;;;;;8.50;2.40;;;17.80;99.90;;;;;;5122402;27;20027;-69
2023/05/02 11:35:34;;;;;;;7.15;2.97;;;17.90;99.90;;;;;;5114465;27;20513;-69
2023/05/02 11:38:05;;;;;;;8.73;2.95;;;17.30;99.90;;;;;;5114532;27;20023;-68
2023/05/02 11:40:31;;;;;;;5.03;2.92;;;17.80;99.90;;;;;;5121260;27;20123;-69
2023/05/02 11:42:59;;;;;;;8.50;2.80;;;17.80;99.90;;;;;;5123362;27;20063;-69
2023/05/02 11:45:36;;;;;;;6.85;2.80;;;17.70;99.90;;;;;;5122290;27;20045;-69
2023/05/02 11:48:06;;;;;;;6.93;2.30;;;17.70;99.90;;;;;;5121758;27;20019;-68
2023/05/02 11:50:33;;;;;;;8.57;3.63;;;18.30;99.90;;;;;;5117735;27;20041;-69
2023/05/02 11:53:00;;;;;;;8.90;2.97;;;18.50;99.90;;;;;;5120734;27;20031;-69
2023/05/02 11:55:27;;;;;;;6.22;3.30;;;18.60;99.90;;;;;;5121183;27;20551;-69
2023/05/02 11:57:54;;;;;;;10.52;3.72;;;18.40;99.90;;;;;;5115259;27;20054;-71
2023/05/02 12:00:27;;;;;;;6.95;2.90;;;18.20;99.90;;;;;;5122126;27;20036;-69
2023/05/02 12:02:53;;;;;;;8.85;3.28;;;18.50;99.90;;;;;;5121440;27;20033;-69
2023/05/02 12:05:31;;;;;;;7.57;3.65;;;18.30;99.90;;;;;;5122071;27;20022;-69
2023/05/02 12:08:00;;;;;;;11.98;3.40;;;18.30;99.90;;;;;;5121796;27;20027;-69
2023/05/02 12:10:36;;;;;;;5.47;3.38;;;18.10;99.90;;;;;;5118185;27;20027;-69
2023/05/02 12:13:06;;;;;;;8.90;3.22;;;18.50;99.90;;;;;;5119388;27;20050;-69
2023/05/02 12:15:33;;;;;;;8.30;3.60;;;18.50;99.90;;;;;;5120917;28;20082;-69
2023/05/02 12:18:03;;;;;;;10.13;3.47;;;18.30;99.90;;;;;;5120650;28;20112;-69
2023/05/02 12:20:30;;;;;;;8.98;4.10;;;17.80;99.90;;;;;;5120119;27;20030;-70
2023/05/02 12:22:59;;;;;;;9.82;4.05;;;17.60;99.90;;;;;;5117396;28;20522;-69
2023/05/02 12:25:26;;;;;;;9.50;4.18;;;17.70;99.90;;;;;;5120282;27;20031;-69
2023/05/02 12:28:02;;;;;;;7.53;3.45;;;18.10;99.90;;;;;;5119879;27;20042;-68
2023/05/02 12:30:30;;;;;;;6.50;2.97;;;18.50;99.90;;;;;;5121438;28;20049;-69
2023/05/02 12:32:58;;;;;;;13.18;3.08;;;18.70;99.90;;;;;;5116947;27;20030;-69
2023/05/02 12:35:24;;;;;;;7.63;3.67;;;18.90;99.90;;;;;;5121967;27;20139;-69
2023/05/02 12:37:55;;;;;;;12.32;4.15;;;19.10;99.90;;;;;;5120941;27;20025;-69
2023/05/02 12:40:22;;;;;;;11.30;4.30;;;19.30;99.90;;;;;;5118241;28;20138;-69
2023/05/02 12:43:02;;;;;;;12.05;3.78;;;19.30;99.90;;;;;;5120209;27;20379;-70
2023/05/02 12:45:32;;;;;;;11.38;4.22;;;19.60;99.90;;;;;;5118841;28;20055;-70
2023/05/02 12:48:00;;;;;;;5.10;3.15;;;19.60;99.90;;;;;;5119285;28;20020;-70
2023/05/02 12:50:38;;;;;;;10.60;3.60;;;19.50;99.90;;;;;;5109253;28;20436;-70